Time;durP1;ratioP1;P1;durP2;ratioP2;P2;SDS_P1;SDS_P2;PMS_P1;PMS_P2;Temp;Humidity;BMP_temperature;BMP_pressure;BME280_temperature;BME280_humidity;BME280_pressure;Samples;Min_cycle;Max_cycle;Signal;HPM_P1;HPM_P2
2022/08/09 00:01:48;;;;;;;10.90;7.82;;;16.10;99.90;;;;;;5059115;28;20094;-71
2022/08/09 00:04:16;;;;;;;14.45;8.93;;;16.20;99.90;;;;;;5058937;28;20518;-71
2022/08/09 00:06:42;;;;;;;11.05;7.75;;;16.10;99.90;;;;;;5075359;28;20603;-71
2022/08/09 00:09:08;;;;;;;12.65;8.02;;;16.10;99.90;;;;;;5075647;28;20045;-71
2022/08/09 00:11:34;;;;;;;12.25;7.75;;;16.10;99.90;;;;;;5058702;28;20043;-71
2022/08/09 00:14:00;;;;;;;9.57;7.88;;;16.00;99.90;;;;;;5075543;28;20044;-71
2022/08/09 00:16:25;;;;;;;9.90;7.88;;;16.00;99.90;;;;;;5075172;28;20493;-71
2022/08/09 00:18:51;;;;;;;10.60;7.70;;;16.00;99.90;;;;;;5058838;28;20127;-71
2022/08/09 00:21:17;;;;;;;11.85;8.05;;;16.00;99.90;;;;;;5075157;28;20040;-71
2022/08/09 00:23:42;;;;;;;15.90;8.50;;;15.90;99.90;;;;;;5058243;28;20089;-71
2022/08/09 00:26:09;;;;;;;9.40;7.45;;;15.90;99.90;;;;;;5058567;28;20055;-71
2022/08/09 00:28:34;;;;;;;9.25;7.50;;;15.80;99.90;;;;;;5058305;28;20046;-71
2022/08/09 00:31:01;;;;;;;11.85;8.32;;;15.80;99.90;;;;;;5075189;28;20032;-71
2022/08/09 00:33:27;;;;;;;9.07;6.32;;;15.80;99.90;;;;;;5075132;28;20093;-71
2022/08/09 00:35:53;;;;;;;8.98;6.63;;;15.70;99.90;;;;;;5075048;28;20588;-71
2022/08/09 00:38:19;;;;;;;10.30;7.00;;;15.70;99.90;;;;;;5058434;28;20036;-71
2022/08/09 00:40:46;;;;;;;9.52;7.20;;;15.70;99.90;;;;;;5058388;28;20135;-71
2022/08/09 00:43:12;;;;;;;10.02;7.57;;;15.60;99.90;;;;;;5074872;28;20048;-71
2022/08/09 00:45:37;;;;;;;8.80;7.28;;;15.60;99.90;;;;;;5074597;28;20078;-71
2022/08/09 00:48:04;;;;;;;13.10;8.38;;;15.50;99.90;;;;;;5058010;28;20036;-71
2022/08/09 00:50:30;;;;;;;8.07;5.28;;;15.50;99.90;;;;;;5074548;28;20032;-71
2022/08/09 00:52:56;;;;;;;11.13;5.85;;;15.40;99.90;;;;;;5074767;28;20435;-71
2022/08/09 00:55:22;;;;;;;7.30;5.60;;;15.40;99.90;;;;;;5074537;28;20120;-71
2022/08/09 00:57:48;;;;;;;8.30;6.65;;;15.30;99.90;;;;;;5074478;28;20044;-71
2022/08/09 01:00:14;;;;;;;7.43;6.50;;;15.20;99.90;;;;;;5074718;28;20048;-71
2022/08/09 01:03:13;;;;;;;8.23;6.65;;;15.10;99.90;;;;;;5074653;28;20105;-71
2022/08/09 01:06:25;;;;;;;8.95;6.55;;;15.10;99.90;;;;;;5074313;28;20045;-71
2022/08/09 01:09:25;;;;;;;7.38;6.10;;;15.00;99.90;;;;;;5071597;28;20067;-71
2022/08/09 01:12:17;;;;;;;6.88;5.55;;;15.00;99.90;;;;;;5074573;28;20075;-71
2022/08/09 01:14:56;;;;;;;5.78;4.00;;;14.90;99.90;;;;;;5057019;28;20053;-71
2022/08/09 01:17:50;;;;;;;4.93;3.70;;;14.90;99.90;;;;;;5057646;28;20063;-71
2022/08/09 01:20:38;;;;;;;5.88;4.82;;;14.80;99.90;;;;;;5070205;28;20479;-71
2022/08/09 01:23:15;;;;;;;5.00;4.50;;;14.70;99.90;;;;;;5057717;28;20040;-71
2022/08/09 01:26:05;;;;;;;6.70;4.75;;;14.70;99.90;;;;;;5074141;28;20051;-71
2022/08/09 01:28:34;;;;;;;5.70;4.60;;;14.60;99.90;;;;;;5074027;28;20036;-71
2022/08/09 01:31:02;;;;;;;5.07;4.55;;;14.50;99.90;;;;;;5073841;28;20497;-71
2022/08/09 01:33:31;;;;;;;4.90;4.20;;;14.50;99.90;;;;;;5073841;28;20040;-71
2022/08/09 01:36:05;;;;;;;6.43;5.03;;;14.50;99.90;;;;;;5073728;28;20071;-71
2022/08/09 01:38:36;;;;;;;5.47;4.95;;;14.50;99.90;;;;;;5057111;28;20072;-71
2022/08/09 01:41:05;;;;;;;7.00;5.22;;;14.50;99.90;;;;;;5073653;28;20398;-71
2022/08/09 01:43:36;;;;;;;5.60;4.43;;;14.40;99.90;;;;;;5073537;28;20516;-71
2022/08/09 01:46:02;;;;;;;5.45;4.15;;;14.40;99.90;;;;;;5073469;28;20401;-71
2022/08/09 01:48:29;;;;;;;5.97;4.28;;;14.40;99.90;;;;;;5056808;28;20086;-72
2022/08/09 01:50:57;;;;;;;8.13;4.35;;;14.40;99.90;;;;;;5073479;28;20493;-71
2022/08/09 01:53:24;;;;;;;5.65;4.57;;;14.40;99.90;;;;;;5073453;28;20068;-71
2022/08/09 01:55:52;;;;;;;4.95;4.35;;;14.40;99.90;;;;;;5073315;28;20412;-71
2022/08/09 01:58:19;;;;;;;5.30;3.88;;;14.40;99.90;;;;;;5073393;28;20028;-71
2022/08/09 02:00:45;;;;;;;6.18;4.22;;;14.40;99.90;;;;;;5073314;28;20039;-71
2022/08/09 02:03:12;;;;;;;7.40;4.07;;;14.40;99.90;;;;;;5073204;28;20075;-71
2022/08/09 02:05:39;;;;;;;5.55;3.83;;;14.40;99.90;;;;;;5073175;28;20047;-71
2022/08/09 02:08:10;;;;;;;5.57;4.20;;;14.30;99.90;;;;;;5056479;28;20520;-71
2022/08/09 02:10:39;;;;;;;7.82;5.00;;;14.40;99.90;;;;;;5073199;28;20068;-71
2022/08/09 02:13:08;;;;;;;4.93;4.22;;;14.30;99.90;;;;;;5073342;28;20028;-71
2022/08/09 02:15:38;;;;;;;5.45;4.10;;;14.30;99.90;;;;;;5072854;28;20028;-71
2022/08/09 02:18:05;;;;;;;5.85;4.22;;;14.30;99.90;;;;;;5056505;28;20494;-71
2022/08/09 02:20:34;;;;;;;5.82;4.80;;;14.30;99.90;;;;;;5072918;28;20040;-71
2022/08/09 02:23:08;;;;;;;6.97;5.47;;;14.40;99.90;;;;;;5072747;28;20050;-71
2022/08/09 02:25:38;;;;;;;7.63;5.85;;;14.50;99.90;;;;;;5072670;28;20506;-71
2022/08/09 02:28:35;;;;;;;8.65;6.63;;;14.50;99.90;;;;;;5072726;28;20036;-71
2022/08/09 02:31:32;;;;;;;11.55;7.10;;;14.50;99.90;;;;;;5072436;28;20041;-71
2022/08/09 02:34:03;;;;;;;9.20;7.03;;;14.50;99.90;;;;;;5064026;28;20056;-71
2022/08/09 02:36:38;;;;;;;7.75;6.28;;;14.60;99.90;;;;;;5072561;28;20071;-71
2022/08/09 02:39:06;;;;;;;7.20;5.57;;;14.60;99.90;;;;;;5055934;28;20132;-71
2022/08/09 02:41:44;;;;;;;9.80;6.40;;;14.60;99.90;;;;;;5072783;28;20523;-71
2022/08/09 02:44:21;;;;;;;7.03;6.15;;;14.60;99.90;;;;;;5072479;28;20496;-71
2022/08/09 02:46:50;;;;;;;8.05;5.75;;;14.60;99.90;;;;;;5072658;28;20451;-71
2022/08/09 02:49:18;;;;;;;8.43;6.20;;;14.60;99.90;;;;;;5072714;28;20036;-71
2022/08/09 02:51:48;;;;;;;8.38;5.78;;;14.60;99.90;;;;;;5072631;28;20063;-71
2022/08/09 02:54:15;;;;;;;8.02;6.68;;;14.60;99.90;;;;;;5072627;28;20048;-71
2022/08/09 02:56:47;;;;;;;7.35;6.43;;;14.60;99.90;;;;;;5072245;28;20040;-71
2022/08/09 02:59:14;;;;;;;10.43;7.35;;;14.60;99.90;;;;;;5072376;28;20044;-71
2022/08/09 03:01:42;;;;;;;11.23;7.72;;;14.60;99.90;;;;;;5072218;28;20123;-71
2022/08/09 03:04:09;;;;;;;13.77;8.98;;;14.60;99.90;;;;;;5072249;28;20036;-71
2022/08/09 03:06:36;;;;;;;9.73;7.97;;;14.60;99.90;;;;;;5071997;28;20036;-71
2022/08/09 03:09:03;;;;;;;12.15;8.65;;;14.60;99.90;;;;;;5055654;28;20048;-71
2022/08/09 03:11:30;;;;;;;8.57;7.50;;;14.60;99.90;;;;;;5072241;28;20036;-71
2022/08/09 03:13:56;;;;;;;9.68;7.43;;;14.60;99.90;;;;;;5072271;28;20101;-71
2022/08/09 03:16:23;;;;;;;9.43;6.97;;;14.60;99.90;;;;;;5055199;28;20513;-71
2022/08/09 03:18:49;;;;;;;8.40;6.97;;;14.60;99.90;;;;;;5071917;28;20067;-71
2022/08/09 03:21:17;;;;;;;9.75;7.13;;;14.60;99.90;;;;;;5055231;28;20037;-71
2022/08/09 03:23:45;;;;;;;11.55;7.70;;;14.60;99.90;;;;;;5071704;28;20443;-71
2022/08/09 03:26:13;;;;;;;9.32;6.97;;;14.60;99.90;;;;;;5072030;28;20107;-71
2022/08/09 03:28:41;;;;;;;9.98;6.93;;;14.60;99.90;;;;;;5071805;28;20512;-71
2022/08/09 03:31:07;;;;;;;8.02;7.05;;;14.50;99.90;;;;;;5054671;28;20523;-71
2022/08/09 03:33:35;;;;;;;7.93;7.10;;;14.50;99.90;;;;;;5071745;28;20506;-71
2022/08/09 03:36:01;;;;;;;10.32;7.30;;;14.50;99.90;;;;;;5071700;28;20063;-71
2022/08/09 03:38:27;;;;;;;8.30;7.25;;;14.50;99.90;;;;;;5071744;28;20059;-71
2022/08/09 03:40:52;;;;;;;9.95;7.55;;;14.50;99.90;;;;;;5054973;28;20040;-71
2022/08/09 03:43:18;;;;;;;8.48;7.10;;;14.40;99.90;;;;;;5071573;28;20044;-71
2022/08/09 03:45:43;;;;;;;10.23;7.90;;;14.40;99.90;;;;;;5071595;28;20090;-71
2022/08/09 03:48:09;;;;;;;9.63;7.30;;;14.40;99.90;;;;;;5071652;28;20037;-71
2022/08/09 03:50:36;;;;;;;9.82;7.35;;;14.30;99.90;;;;;;5071581;28;20082;-71
2022/08/09 03:53:04;;;;;;;8.50;7.30;;;14.30;99.90;;;;;;5054993;28;20529;-71
2022/08/09 03:55:30;;;;;;;8.80;6.65;;;14.30;99.90;;;;;;5071575;28;20049;-71
2022/08/09 03:57:56;;;;;;;9.43;6.93;;;14.20;99.90;;;;;;5071550;28;20090;-71
2022/08/09 04:00:23;;;;;;;6.90;5.40;;;14.10;99.90;;;;;;5071617;28;20131;-71
2022/08/09 04:02:51;;;;;;;5.80;5.07;;;14.10;99.90;;;;;;5071569;28;20051;-71
2022/08/09 04:05:19;;;;;;;7.75;5.63;;;14.00;99.90;;;;;;5071382;28;20405;-72
2022/08/09 04:07:46;;;;;;;6.72;5.50;;;13.90;99.90;;;;;;5071732;28;20072;-71
2022/08/09 04:10:13;;;;;;;7.53;5.40;;;13.90;99.90;;;;;;5071484;28;20115;-71
2022/08/09 04:12:45;;;;;;;7.70;5.25;;;13.80;99.90;;;;;;5055035;28;20047;-71
2022/08/09 04:15:12;;;;;;;8.33;5.53;;;13.80;99.90;;;;;;5071748;28;20098;-71
2022/08/09 04:17:38;;;;;;;9.18;5.03;;;13.70;99.90;;;;;;5071347;28;20044;-71
2022/08/09 04:20:06;;;;;;;8.45;4.82;;;13.60;99.90;;;;;;5054717;28;20038;-71
2022/08/09 04:22:32;;;;;;;6.40;4.82;;;13.60;99.90;;;;;;5054489;28;20047;-71
2022/08/09 04:24:58;;;;;;;8.15;5.22;;;13.60;99.90;;;;;;5054558;28;20037;-71
2022/08/09 04:27:23;;;;;;;7.10;5.00;;;13.60;99.90;;;;;;5071224;28;20040;-72
2022/08/09 04:29:49;;;;;;;7.97;5.78;;;13.60;99.90;;;;;;5071332;28;20044;-71
2022/08/09 04:32:18;;;;;;;8.65;5.40;;;13.70;99.90;;;;;;5054946;28;20524;-71
2022/08/09 04:34:43;;;;;;;7.45;4.95;;;13.70;99.90;;;;;;5054589;28;20044;-71
2022/08/09 04:37:09;;;;;;;8.73;5.30;;;13.60;99.90;;;;;;5054664;28;20041;-71
2022/08/09 04:39:35;;;;;;;8.60;5.18;;;13.60;99.90;;;;;;5054840;28;20044;-71
2022/08/09 04:42:00;;;;;;;6.25;4.60;;;13.60;99.90;;;;;;5071457;28;20404;-71
2022/08/09 04:44:26;;;;;;;7.72;4.72;;;13.50;99.90;;;;;;5074105;28;20475;-71
2022/08/09 04:46:51;;;;;;;8.93;5.07;;;13.50;99.90;;;;;;5074930;28;20386;-71
2022/08/09 04:49:17;;;;;;;7.45;5.00;;;13.50;99.90;;;;;;5074717;28;20039;-71
2022/08/09 04:51:44;;;;;;;9.43;5.22;;;13.40;99.90;;;;;;5057910;28;20043;-71
2022/08/09 04:54:09;;;;;;;8.98;5.03;;;13.40;99.90;;;;;;5074581;28;20040;-71
2022/08/09 04:56:35;;;;;;;6.72;4.80;;;13.50;99.90;;;;;;5074772;28;20068;-71
2022/08/09 04:59:01;;;;;;;6.35;4.53;;;13.50;99.90;;;;;;5074574;28;20520;-71
2022/08/09 05:01:27;;;;;;;9.38;5.50;;;13.50;99.90;;;;;;5057872;28;20072;-71
2022/08/09 05:03:52;;;;;;;6.70;4.93;;;13.60;99.90;;;;;;5074380;28;20087;-71
2022/08/09 05:06:18;;;;;;;8.65;5.47;;;13.70;99.90;;;;;;5074313;28;20047;-71
2022/08/09 05:08:43;;;;;;;7.47;5.43;;;13.90;99.90;;;;;;5074315;28;20036;-71
2022/08/09 05:11:09;;;;;;;7.50;6.22;;;13.90;99.90;;;;;;5057657;28;20036;-71
2022/08/09 05:13:35;;;;;;;7.93;5.68;;;14.10;99.90;;;;;;5074189;28;20059;-71
2022/08/09 05:16:00;;;;;;;8.55;5.38;;;14.20;99.90;;;;;;5074065;28;20040;-71
2022/08/09 05:18:28;;;;;;;7.72;5.70;;;14.30;99.90;;;;;;5074180;28;20044;-70
2022/08/09 05:20:58;;;;;;;7.22;5.38;;;14.40;99.90;;;;;;5074117;28;20048;-71
2022/08/09 05:23:23;;;;;;;7.53;4.90;;;14.50;99.90;;;;;;5073897;28;20043;-71
2022/08/09 05:25:50;;;;;;;6.45;5.18;;;14.50;99.90;;;;;;5073984;28;20036;-71
2022/08/09 05:28:15;;;;;;;6.93;5.10;;;14.60;99.90;;;;;;5073922;28;20072;-71
2022/08/09 05:30:41;;;;;;;8.52;5.60;;;14.70;99.90;;;;;;5074104;28;20075;-71
2022/08/09 05:33:07;;;;;;;8.10;5.78;;;14.80;99.90;;;;;;5057273;28;20047;-70
2022/08/09 05:35:32;;;;;;;8.60;5.68;;;14.80;99.90;;;;;;5057358;28;20094;-71
2022/08/09 05:37:58;;;;;;;7.00;5.25;;;14.90;99.90;;;;;;5073822;28;20032;-72
2022/08/09 05:40:25;;;;;;;8.43;5.45;;;14.90;99.90;;;;;;5057054;28;20044;-71
2022/08/09 05:42:51;;;;;;;8.23;5.40;;;15.00;99.90;;;;;;5075171;28;20034;-71
2022/08/09 05:45:16;;;;;;;6.97;5.25;;;15.00;99.90;;;;;;5073461;28;20515;-72
2022/08/09 05:47:42;;;;;;;6.90;4.93;;;15.10;99.90;;;;;;5073577;28;20094;-71
2022/08/09 05:50:08;;;;;;;6.10;5.38;;;15.10;99.90;;;;;;5073566;28;20089;-71
2022/08/09 05:52:34;;;;;;;9.23;4.85;;;15.20;99.90;;;;;;5073537;28;20075;-71
2022/08/09 05:55:00;;;;;;;7.97;4.88;;;15.30;99.90;;;;;;5073412;28;20505;-71
2022/08/09 05:57:26;;;;;;;7.05;4.95;;;15.30;99.90;;;;;;5073375;28;20044;-71
2022/08/09 05:59:51;;;;;;;8.15;5.18;;;15.40;99.90;;;;;;5073386;28;20052;-71
2022/08/09 06:02:17;;;;;;;7.55;4.97;;;15.50;99.90;;;;;;5073398;28;20047;-71
2022/08/09 06:04:43;;;;;;;6.95;5.32;;;15.50;99.90;;;;;;5073363;28;20128;-71
2022/08/09 06:07:08;;;;;;;11.02;6.35;;;15.60;99.90;;;;;;5073146;28;20032;-71
2022/08/09 06:09:36;;;;;;;9.93;6.80;;;15.70;99.90;;;;;;5073530;28;20036;-71
2022/08/09 06:12:01;;;;;;;8.70;6.68;;;15.70;99.90;;;;;;5073405;28;20094;-71
2022/08/09 06:14:27;;;;;;;10.50;7.78;;;15.80;99.90;;;;;;5056455;28;20490;-71
2022/08/09 06:16:54;;;;;;;12.32;7.90;;;15.80;99.90;;;;;;5073249;28;20055;-71
2022/08/09 06:19:19;;;;;;;10.52;7.10;;;15.90;99.90;;;;;;5073364;28;20497;-72
2022/08/09 06:21:45;;;;;;;12.05;7.75;;;16.00;99.90;;;;;;5072964;28;20135;-71
2022/08/09 06:24:11;;;;;;;10.57;7.47;;;16.00;99.90;;;;;;5056315;28;20041;-71
2022/08/09 06:26:40;;;;;;;9.32;7.22;;;16.10;99.90;;;;;;5073126;28;20043;-71
2022/08/09 06:29:07;;;;;;;9.45;6.57;;;16.20;99.90;;;;;;5073015;28;20032;-71
2022/08/09 06:31:34;;;;;;;12.27;6.68;;;16.20;99.90;;;;;;5056112;28;20044;-71
2022/08/09 06:34:01;;;;;;;7.88;5.63;;;16.30;99.90;;;;;;5056104;28;20037;-71
2022/08/09 06:36:26;;;;;;;7.45;5.50;;;16.40;99.90;;;;;;5072624;28;20044;-71
2022/08/09 06:38:52;;;;;;;8.10;5.45;;;16.40;99.90;;;;;;5056051;28;20055;-70
2022/08/09 06:41:18;;;;;;;9.63;5.53;;;16.50;99.90;;;;;;5072808;28;20044;-70
2022/08/09 06:43:45;;;;;;;10.23;5.45;;;16.60;99.90;;;;;;5055778;28;20123;-71
2022/08/09 06:46:10;;;;;;;7.80;5.20;;;16.70;99.90;;;;;;5072427;28;20037;-71
2022/08/09 06:48:36;;;;;;;7.35;4.53;;;16.70;99.90;;;;;;5072642;28;20082;-71
2022/08/09 06:51:01;;;;;;;8.45;4.20;;;16.80;99.90;;;;;;5072611;28;20563;-71
2022/08/09 06:53:27;;;;;;;8.45;4.47;;;17.00;99.90;;;;;;5072374;28;20124;-71
2022/08/09 06:55:53;;;;;;;7.85;4.18;;;17.00;99.90;;;;;;5072244;28;20109;-71
2022/08/09 06:58:19;;;;;;;6.18;3.63;;;17.10;99.90;;;;;;5055535;28;20115;-71
2022/08/09 07:00:44;;;;;;;8.63;3.60;;;17.20;99.90;;;;;;5072236;28;20036;-71
2022/08/09 07:03:10;;;;;;;5.18;3.15;;;17.30;99.90;;;;;;5072480;28;20036;-70
2022/08/09 07:05:35;;;;;;;8.43;3.55;;;17.30;99.90;;;;;;5071375;28;20074;-71
2022/08/09 07:08:01;;;;;;;6.35;3.33;;;17.50;99.90;;;;;;5072169;28;20048;-70
2022/08/09 07:10:26;;;;;;;5.30;3.20;;;17.50;99.90;;;;;;5072413;28;20074;-70
2022/08/09 07:12:52;;;;;;;5.88;2.88;;;17.70;99.90;;;;;;5072362;28;20041;-70
2022/08/09 07:15:18;;;;;;;7.95;3.40;;;17.80;99.90;;;;;;5055357;28;20408;-70
2022/08/09 07:17:43;;;;;;;6.50;3.08;;;17.80;99.90;;;;;;5072051;28;20043;-70
2022/08/09 07:20:09;;;;;;;5.50;2.80;;;18.00;99.90;;;;;;5055251;28;20044;-71
2022/08/09 07:22:35;;;;;;;4.82;2.10;;;18.10;99.90;;;;;;5071884;28;20048;-71
2022/08/09 07:25:03;;;;;;;4.40;2.75;;;18.20;99.90;;;;;;5071914;28;20052;-71
2022/08/09 07:27:29;;;;;;;8.02;2.50;;;18.30;99.90;;;;;;5055577;28;20045;-71
2022/08/09 07:29:55;;;;;;;6.82;2.42;;;18.30;99.90;;;;;;5071907;28;20044;-71
2022/08/09 07:32:21;;;;;;;5.68;1.90;;;18.40;99.90;;;;;;5055159;28;20036;-71
2022/08/09 07:34:46;;;;;;;6.28;1.75;;;18.50;99.90;;;;;;5072099;28;20126;-71
2022/08/09 07:37:12;;;;;;;3.70;1.60;;;18.60;99.90;;;;;;5055121;28;20105;-71
2022/08/09 07:39:38;;;;;;;4.82;1.58;;;18.70;99.90;;;;;;5072070;28;20044;-71
2022/08/09 07:42:04;;;;;;;4.47;1.50;;;18.80;99.90;;;;;;5071809;28;20508;-71
2022/08/09 07:44:30;;;;;;;3.45;1.30;;;18.90;99.90;;;;;;5071812;28;20520;-71
2022/08/09 07:46:55;;;;;;;3.50;1.30;;;19.00;99.90;;;;;;5054965;28;20032;-71
2022/08/09 07:49:21;;;;;;;5.18;1.30;;;19.10;99.90;;;;;;5055200;28;20071;-71
2022/08/09 07:51:47;;;;;;;5.40;1.27;;;19.10;99.90;;;;;;5071709;28;20386;-71
2022/08/09 07:54:14;;;;;;;1.92;0.90;;;19.20;99.90;;;;;;5071697;28;20036;-71
2022/08/09 07:56:40;;;;;;;2.90;0.82;;;19.20;99.90;;;;;;5054747;28;20071;-71
2022/08/09 07:59:06;;;;;;;2.78;0.77;;;19.30;99.90;;;;;;5054881;28;20055;-71
2022/08/09 08:01:33;;;;;;;1.98;1.00;;;19.40;99.90;;;;;;5054900;28;20040;-71
2022/08/09 08:03:58;;;;;;;3.65;1.17;;;19.50;99.90;;;;;;5071530;28;20044;-71
2022/08/09 08:06:24;;;;;;;4.90;1.55;;;19.60;99.90;;;;;;5071725;28;20033;-70
2022/08/09 08:08:49;;;;;;;4.25;1.52;;;19.80;99.90;;;;;;5054884;28;20526;-70
2022/08/09 08:11:16;;;;;;;3.15;1.00;;;20.00;99.90;;;;;;5055090;28;20037;-70
2022/08/09 08:13:41;;;;;;;3.45;1.13;;;20.10;99.90;;;;;;5071471;28;20051;-71
2022/08/09 08:16:08;;;;;;;2.60;0.95;;;20.10;99.90;;;;;;5071346;28;20119;-71
2022/08/09 08:18:34;;;;;;;2.42;1.00;;;20.20;99.90;;;;;;5074846;28;20044;-71
2022/08/09 08:20:59;;;;;;;3.45;0.80;;;20.30;99.90;;;;;;5075320;28;20182;-71
2022/08/09 08:23:25;;;;;;;2.92;1.25;;;20.40;99.90;;;;;;5075090;28;20032;-70
2022/08/09 08:25:51;;;;;;;3.30;1.13;;;20.50;99.90;;;;;;5058779;28;20044;-71
2022/08/09 08:28:18;;;;;;;2.95;1.10;;;20.60;99.90;;;;;;5075098;28;20032;-70
2022/08/09 08:30:45;;;;;;;2.80;1.02;;;20.60;99.90;;;;;;5058660;28;20078;-70
2022/08/09 08:33:11;;;;;;;2.78;1.00;;;20.60;99.90;;;;;;5058325;28;20048;-70
2022/08/09 08:35:37;;;;;;;2.33;0.90;;;20.70;99.90;;;;;;5074944;28;20080;-71
2022/08/09 08:38:02;;;;;;;2.13;0.88;;;20.70;99.90;;;;;;5058257;28;20497;-70
2022/08/09 08:40:28;;;;;;;2.85;1.00;;;20.60;99.90;;;;;;5074880;28;20048;-70
2022/08/09 08:42:54;;;;;;;2.17;1.20;;;20.60;99.90;;;;;;5058470;28;20044;-70
2022/08/09 08:45:31;;;;;;;2.00;0.80;;;20.80;99.90;;;;;;5074656;28;20051;-71
2022/08/09 08:47:56;;;;;;;3.65;1.17;;;20.80;99.90;;;;;;5075061;28;20515;-71
2022/08/09 08:50:22;;;;;;;4.45;0.93;;;20.90;99.90;;;;;;5074759;28;20036;-71
2022/08/09 08:52:48;;;;;;;3.55;0.98;;;21.00;99.90;;;;;;5074700;28;20142;-71
2022/08/09 08:55:17;;;;;;;3.65;0.80;;;21.10;99.90;;;;;;5074636;28;20044;-71
2022/08/09 08:57:42;;;;;;;3.08;0.90;;;21.10;99.90;;;;;;5074809;28;20048;-71
2022/08/09 09:00:09;;;;;;;2.28;0.60;;;21.10;99.90;;;;;;5074576;28;20436;-70
2022/08/09 09:02:37;;;;;;;3.10;0.60;;;21.30;99.90;;;;;;5074478;28;20485;-70
2022/08/09 09:05:03;;;;;;;1.80;0.70;;;21.60;99.90;;;;;;5074363;28;20080;-70
2022/08/09 09:07:31;;;;;;;2.80;0.68;;;21.90;99.90;;;;;;5057703;28;20067;-71
2022/08/09 09:09:58;;;;;;;3.47;0.50;;;22.20;99.90;;;;;;5074380;28;20033;-70
2022/08/09 09:12:26;;;;;;;2.13;0.60;;;22.60;99.90;;;;;;5074330;28;20093;-70
2022/08/09 09:14:53;;;;;;;2.47;0.47;;;22.80;99.90;;;;;;5074286;28;20119;-70
2022/08/09 09:17:19;;;;;;;3.65;0.40;;;23.10;99.90;;;;;;5074173;28;20055;-71
2022/08/09 09:19:45;;;;;;;2.38;0.57;;;23.30;99.90;;;;;;5074224;28;20040;-70
2022/08/09 09:22:16;;;;;;;3.80;0.82;;;23.40;99.90;;;;;;5074343;28;20113;-70
2022/08/09 09:24:42;;;;;;;2.22;0.60;;;23.60;99.90;;;;;;5074178;28;20098;-70
2022/08/09 09:27:09;;;;;;;2.42;0.80;;;23.80;99.90;;;;;;5074242;28;20041;-70
2022/08/09 09:29:38;;;;;;;1.98;0.68;;;24.00;99.90;;;;;;5073344;28;20040;-70
2022/08/09 09:32:04;;;;;;;2.47;0.60;;;24.20;99.90;;;;;;5057537;28;20386;-70
2022/08/09 09:34:30;;;;;;;2.35;0.57;;;24.10;99.90;;;;;;5057231;28;20047;-70
2022/08/09 09:36:57;;;;;;;2.45;0.60;;;24.00;99.90;;;;;;5057092;28;20036;-70
2022/08/09 09:39:24;;;;;;;1.70;0.63;;;23.90;99.90;;;;;;5074122;28;20041;-69
2022/08/09 09:41:50;;;;;;;0.85;0.45;;;24.10;99.90;;;;;;5073838;28;20079;-69
2022/08/09 09:44:34;;;;;;;2.85;0.60;;;24.20;99.90;;;;;;5073676;28;20121;-69
2022/08/09 09:47:08;;;;;;;1.75;0.50;;;24.30;99.10;;;;;;5073936;28;20032;-70
2022/08/09 09:49:36;;;;;;;3.95;0.63;;;24.00;99.70;;;;;;5073648;28;20489;-70
2022/08/09 09:52:04;;;;;;;1.30;0.43;;;23.80;99.90;;;;;;5073583;28;20040;-70
2022/08/09 09:54:36;;;;;;;1.30;0.50;;;23.90;99.90;;;;;;5073572;28;20162;-70
2022/08/09 09:57:21;;;;;;;2.20;0.65;;;24.10;99.90;;;;;;5057055;28;20107;-70
2022/08/09 09:59:52;;;;;;;2.30;0.50;;;24.40;99.90;;;;;;5073457;28;20045;-70
2022/08/09 10:02:18;;;;;;;1.33;0.45;;;24.70;99.90;;;;;;5073436;28;20037;-70
2022/08/09 10:04:45;;;;;;;1.77;0.50;;;24.90;97.90;;;;;;5056541;28;20041;-70
2022/08/09 10:07:25;;;;;;;2.28;0.50;;;24.90;95.80;;;;;;5073513;28;20047;-70
2022/08/09 10:09:54;;;;;;;1.35;0.40;;;24.90;95.30;;;;;;5073271;28;20043;-70
2022/08/09 10:12:28;;;;;;;3.25;0.40;;;25.00;94.60;;;;;;5073487;28;20032;-70
2022/08/09 10:15:15;;;;;;;2.97;0.50;;;25.20;94.20;;;;;;5073212;28;20040;-70
2022/08/09 10:17:44;;;;;;;2.50;0.50;;;25.30;91.50;;;;;;5056392;28;20169;-69
2022/08/09 10:20:18;;;;;;;1.60;0.45;;;25.50;92.10;;;;;;5073276;28;20036;-69
2022/08/09 10:22:46;;;;;;;0.98;0.38;;;25.80;90.50;;;;;;5072902;28;20056;-68
2022/08/09 10:25:12;;;;;;;2.40;0.50;;;25.80;89.90;;;;;;5072856;28;20052;-69
2022/08/09 10:27:39;;;;;;;2.78;0.47;;;25.80;87.80;;;;;;5072682;28;20036;-70
2022/08/09 10:30:06;;;;;;;1.50;0.30;;;25.90;86.90;;;;;;5056105;28;20090;-69
2022/08/09 10:32:36;;;;;;;0.75;0.38;;;26.00;85.70;;;;;;5073057;28;20106;-69
2022/08/09 10:35:03;;;;;;;2.45;0.38;;;26.10;84.50;;;;;;5072739;28;20045;-69
2022/08/09 10:37:28;;;;;;;1.30;0.40;;;26.30;83.60;;;;;;5072657;28;20044;-70
2022/08/09 10:39:55;;;;;;;1.25;0.35;;;26.60;80.20;;;;;;5072288;28;20070;-70
2022/08/09 10:42:21;;;;;;;2.83;0.47;;;26.70;80.80;;;;;;5072312;28;20094;-70
2022/08/09 10:44:52;;;;;;;3.78;0.77;;;26.90;75.70;;;;;;5072678;28;20036;-70
2022/08/09 10:47:27;;;;;;;5.38;0.80;;;27.10;75.20;;;;;;5072461;28;20386;-70
2022/08/09 10:50:05;;;;;;;2.08;0.30;;;27.30;75.20;;;;;;5072514;28;20036;-70
2022/08/09 10:52:39;;;;;;;0.70;0.30;;;27.40;74.50;;;;;;5072530;28;20044;-70
2022/08/09 10:55:25;;;;;;;1.48;0.60;;;27.50;69.50;;;;;;5072370;28;20488;-70
2022/08/09 10:57:52;;;;;;;1.42;0.30;;;27.50;68.60;;;;;;5072449;28;20405;-70
2022/08/09 11:00:34;;;;;;;1.27;0.30;;;27.70;69.80;;;;;;5072337;28;20044;-70
2022/08/09 11:03:00;;;;;;;3.60;0.47;;;27.80;68.00;;;;;;5072291;28;20090;-70
2022/08/09 11:05:26;;;;;;;3.75;0.57;;;27.80;66.90;;;;;;5072025;28;20123;-69
2022/08/09 11:07:52;;;;;;;0.52;0.30;;;27.80;68.20;;;;;;5055393;28;20119;-68
2022/08/09 11:10:39;;;;;;;0.82;0.40;;;27.90;66.80;;;;;;5072122;28;20098;-68
2022/08/09 11:13:16;;;;;;;1.30;0.40;;;27.80;65.90;;;;;;5072624;28;20397;-69
2022/08/09 11:15:41;;;;;;;6.75;0.50;;;27.90;65.30;;;;;;5072009;28;20043;-70
2022/08/09 11:18:11;;;;;;;1.40;0.40;;;28.00;65.60;;;;;;5072215;28;20115;-70
2022/08/09 11:20:43;;;;;;;1.90;0.40;;;28.10;65.70;;;;;;5072060;28;20049;-70
2022/08/09 11:23:10;;;;;;;0.90;0.30;;;28.20;63.40;;;;;;5071898;28;20036;-70
2022/08/09 11:25:38;;;;;;;0.50;0.28;;;28.10;64.50;;;;;;5071765;28;20075;-70
2022/08/09 11:28:28;;;;;;;1.23;0.30;;;28.20;64.40;;;;;;5071909;28;20119;-70
2022/08/09 11:30:54;;;;;;;3.03;0.32;;;28.40;64.10;;;;;;5071834;28;20040;-70
2022/08/09 11:33:19;;;;;;;2.22;0.40;;;28.50;64.10;;;;;;5071747;28;20098;-70
2022/08/09 11:35:53;;;;;;;2.08;0.20;;;28.60;63.20;;;;;;5055324;28;20120;-69
2022/08/09 11:38:33;;;;;;;1.55;0.50;;;28.60;62.50;;;;;;5071881;28;20470;-70
2022/08/09 11:41:12;;;;;;;1.15;0.45;;;28.70;62.30;;;;;;5072129;28;20036;-69
2022/08/09 11:43:45;;;;;;;5.47;0.50;;;28.60;61.20;;;;;;5055451;28;20044;-69
2022/08/09 11:46:11;;;;;;;2.10;0.50;;;28.80;62.20;;;;;;5071833;28;20039;-70
2022/08/09 11:48:51;;;;;;;1.40;0.40;;;28.90;61.40;;;;;;5072035;28;20119;-70
2022/08/09 11:51:22;;;;;;;1.08;0.40;;;29.00;60.60;;;;;;5071767;28;20045;-70
2022/08/09 11:54:06;;;;;;;3.95;0.40;;;28.80;60.10;;;;;;5058999;28;20036;-70
2022/08/09 11:56:32;;;;;;;9.57;0.73;;;28.50;60.50;;;;;;5076250;28;20120;-70
2022/08/09 11:58:59;;;;;;;0.77;0.30;;;28.50;61.20;;;;;;5075845;28;20544;-69
2022/08/09 12:01:41;;;;;;;1.52;0.40;;;28.60;60.70;;;;;;5076135;28;20045;-69
2022/08/09 12:04:09;;;;;;;1.13;0.50;;;28.80;61.40;;;;;;5075975;28;20119;-69
2022/08/09 12:06:36;;;;;;;1.17;0.40;;;28.90;62.00;;;;;;5075762;28;20036;-70
2022/08/09 12:09:09;;;;;;;1.45;0.35;;;29.20;62.30;;;;;;5075623;28;20448;-70
2022/08/09 12:11:35;;;;;;;1.67;0.40;;;29.30;59.50;;;;;;5075634;28;20037;-70
2022/08/09 12:14:08;;;;;;;1.08;0.43;;;29.30;58.90;;;;;;5075481;28;20448;-70
2022/08/09 12:16:40;;;;;;;2.20;0.30;;;29.40;59.70;;;;;;5075316;28;20044;-69
2022/08/09 12:19:11;;;;;;;2.30;0.50;;;29.50;58.60;;;;;;5075347;28;20040;-70
2022/08/09 12:21:40;;;;;;;2.25;0.60;;;29.60;59.00;;;;;;5075189;28;20492;-70
2022/08/09 12:24:09;;;;;;;1.30;0.50;;;29.80;59.10;;;;;;5075243;28;20049;-70
2022/08/09 12:26:43;;;;;;;1.50;0.40;;;29.80;58.70;;;;;;5058822;28;20082;-70
2022/08/09 12:29:15;;;;;;;1.00;0.55;;;29.80;58.30;;;;;;5075249;28;20123;-69
2022/08/09 12:31:41;;;;;;;;;;;29.90;57.10;;;;;;5075634;28;20468;-69
2022/08/09 12:34:11;;;;;;;1.23;0.32;;;29.80;57.80;;;;;;5075253;28;20415;-69
2022/08/09 12:36:55;;;;;;;2.92;0.50;;;29.80;58.90;;;;;;5074903;28;20041;-69
2022/08/09 12:39:21;;;;;;;3.58;0.50;;;29.80;57.30;;;;;;5058575;28;20040;-69
2022/08/09 12:41:47;;;;;;;4.10;0.40;;;29.60;57.80;;;;;;5075226;28;20474;-69
2022/08/09 12:44:13;;;;;;;1.85;0.40;;;29.60;58.80;;;;;;5074816;28;20517;-69
2022/08/09 12:46:43;;;;;;;1.30;0.47;;;29.80;57.10;;;;;;5074792;28;20032;-69
2022/08/09 12:49:10;;;;;;;3.15;0.60;;;29.90;57.40;;;;;;5074664;28;20040;-70
2022/08/09 12:51:36;;;;;;;1.98;0.50;;;30.00;58.10;;;;;;5074754;28;20055;-70
2022/08/09 12:54:04;;;;;;;1.65;0.43;;;30.20;57.80;;;;;;5058400;28;20037;-70